sensor_id;sensor_type;location;lat;lon;timestamp;P1;durP1;ratioP1;P2;durP2;ratioP2
37067;SDS011;22982;42.848;25.468;2024-02-28T00:02:25;18.23;;;11.77;;
37067;SDS011;22982;42.848;25.468;2024-02-28T00:07:32;21.70;;;12.32;;
37067;SDS011;22982;42.848;25.468;2024-02-28T00:12:35;21.55;;;12.32;;
37067;SDS011;22982;42.848;25.468;2024-02-28T00:17:42;17.25;;;12.02;;
37067;SDS011;22982;42.848;25.468;2024-02-28T00:22:44;19.20;;;10.75;;
37067;SDS011;22982;42.848;25.468;2024-02-28T00:27:48;18.38;;;10.40;;
37067;SDS011;22982;42.848;25.468;2024-02-28T00:32:50;21.80;;;11.20;;
37067;SDS011;22982;42.848;25.468;2024-02-28T00:37:53;19.48;;;11.30;;
37067;SDS011;22982;42.848;25.468;2024-02-28T00:42:56;18.45;;;10.70;;
37067;SDS011;22982;42.848;25.468;2024-02-28T00:48:00;21.05;;;10.75;;
37067;SDS011;22982;42.848;25.468;2024-02-28T00:53:02;19.40;;;11.25;;
37067;SDS011;22982;42.848;25.468;2024-02-28T00:58:10;21.67;;;11.50;;
37067;SDS011;22982;42.848;25.468;2024-02-28T01:03:13;18.50;;;10.85;;
37067;SDS011;22982;42.848;25.468;2024-02-28T01:08:17;18.08;;;10.68;;
37067;SDS011;22982;42.848;25.468;2024-02-28T01:13:20;18.42;;;10.75;;
37067;SDS011;22982;42.848;25.468;2024-02-28T01:18:23;16.77;;;10.48;;
37067;SDS011;22982;42.848;25.468;2024-02-28T01:23:25;18.70;;;10.80;;
37067;SDS011;22982;42.848;25.468;2024-02-28T01:28:31;16.85;;;10.55;;
37067;SDS011;22982;42.848;25.468;2024-02-28T01:33:33;22.92;;;10.45;;
37067;SDS011;22982;42.848;25.468;2024-02-28T01:38:36;18.15;;;10.43;;
37067;SDS011;22982;42.848;25.468;2024-02-28T01:43:38;19.45;;;10.70;;
37067;SDS011;22982;42.848;25.468;2024-02-28T01:48:41;17.10;;;9.77;;
37067;SDS011;22982;42.848;25.468;2024-02-28T01:53:44;14.25;;;9.50;;
37067;SDS011;22982;42.848;25.468;2024-02-28T01:58:47;20.38;;;9.93;;
37067;SDS011;22982;42.848;25.468;2024-02-28T02:03:51;20.33;;;10.57;;
37067;SDS011;22982;42.848;25.468;2024-02-28T02:08:54;15.43;;;8.68;;
37067;SDS011;22982;42.848;25.468;2024-02-28T02:13:57;12.77;;;8.45;;
37067;SDS011;22982;42.848;25.468;2024-02-28T02:19:05;14.68;;;9.32;;
37067;SDS011;22982;42.848;25.468;2024-02-28T02:24:10;14.47;;;9.63;;
37067;SDS011;22982;42.848;25.468;2024-02-28T02:29:13;19.80;;;10.52;;
37067;SDS011;22982;42.848;25.468;2024-02-28T02:34:16;20.77;;;9.13;;
37067;SDS011;22982;42.848;25.468;2024-02-28T02:39:19;14.98;;;9.65;;
37067;SDS011;22982;42.848;25.468;2024-02-28T02:44:21;13.95;;;8.60;;
37067;SDS011;22982;42.848;25.468;2024-02-28T02:49:26;15.57;;;8.68;;
37067;SDS011;22982;42.848;25.468;2024-02-28T02:54:28;15.43;;;8.57;;
37067;SDS011;22982;42.848;25.468;2024-02-28T02:59:32;15.75;;;8.07;;
37067;SDS011;22982;42.848;25.468;2024-02-28T03:04:34;14.93;;;8.55;;
37067;SDS011;22982;42.848;25.468;2024-02-28T03:09:37;18.42;;;9.38;;
37067;SDS011;22982;42.848;25.468;2024-02-28T03:14:39;16.20;;;9.18;;
37067;SDS011;22982;42.848;25.468;2024-02-28T03:19:42;18.25;;;10.63;;
37067;SDS011;22982;42.848;25.468;2024-02-28T03:24:47;20.58;;;9.90;;
37067;SDS011;22982;42.848;25.468;2024-02-28T03:29:50;23.33;;;12.07;;
37067;SDS011;22982;42.848;25.468;2024-02-28T03:34:53;18.02;;;11.07;;
37067;SDS011;22982;42.848;25.468;2024-02-28T03:39:56;20.58;;;11.07;;
37067;SDS011;22982;42.848;25.468;2024-02-28T03:44:59;21.38;;;11.70;;
37067;SDS011;22982;42.848;25.468;2024-02-28T03:50:02;24.75;;;12.38;;
37067;SDS011;22982;42.848;25.468;2024-02-28T03:55:08;26.48;;;14.13;;
37067;SDS011;22982;42.848;25.468;2024-02-28T04:00:10;18.83;;;10.95;;
37067;SDS011;22982;42.848;25.468;2024-02-28T04:05:17;20.65;;;10.45;;
37067;SDS011;22982;42.848;25.468;2024-02-28T04:10:20;23.25;;;10.85;;
37067;SDS011;22982;42.848;25.468;2024-02-28T04:15:22;21.70;;;11.43;;
37067;SDS011;22982;42.848;25.468;2024-02-28T04:20:28;18.50;;;10.38;;
37067;SDS011;22982;42.848;25.468;2024-02-28T04:25:30;20.95;;;10.55;;
37067;SDS011;22982;42.848;25.468;2024-02-28T04:30:34;20.10;;;11.07;;
37067;SDS011;22982;42.848;25.468;2024-02-28T04:35:36;19.67;;;9.88;;
37067;SDS011;22982;42.848;25.468;2024-02-28T04:40:44;17.13;;;8.95;;
37067;SDS011;22982;42.848;25.468;2024-02-28T04:45:46;20.88;;;12.02;;
37067;SDS011;22982;42.848;25.468;2024-02-28T04:50:51;18.45;;;11.43;;
37067;SDS011;22982;42.848;25.468;2024-02-28T04:55:53;18.50;;;11.73;;
37067;SDS011;22982;42.848;25.468;2024-02-28T05:00:56;23.25;;;14.10;;
37067;SDS011;22982;42.848;25.468;2024-02-28T05:06:02;21.42;;;12.95;;
37067;SDS011;22982;42.848;25.468;2024-02-28T05:11:05;19.80;;;13.13;;
37067;SDS011;22982;42.848;25.468;2024-02-28T05:16:12;25.02;;;15.80;;
37067;SDS011;22982;42.848;25.468;2024-02-28T05:21:15;20.55;;;14.27;;
